sensor_id;sensor_type;location;lat;lon;timestamp;P1;durP1;ratioP1;P2;durP2;ratioP2
10699;SDS011;5401;41.986;21.452;2024-03-08T00:00:10;37.93;;;21.47;;
10699;SDS011;5401;41.986;21.452;2024-03-08T00:02:39;29.47;;;19.33;;
10699;SDS011;5401;41.986;21.452;2024-03-08T00:05:08;30.67;;;21.10;;
10699;SDS011;5401;41.986;21.452;2024-03-08T00:07:36;35.93;;;22.10;;
10699;SDS011;5401;41.986;21.452;2024-03-08T00:10:04;39.27;;;23.47;;
10699;SDS011;5401;41.986;21.452;2024-03-08T00:12:36;30.00;;;21.07;;
10699;SDS011;5401;41.986;21.452;2024-03-08T00:15:04;32.07;;;24.33;;
10699;SDS011;5401;41.986;21.452;2024-03-08T00:17:33;36.30;;;24.60;;
10699;SDS011;5401;41.986;21.452;2024-03-08T00:20:00;38.97;;;25.47;;
10699;SDS011;5401;41.986;21.452;2024-03-08T00:22:33;44.23;;;28.40;;
10699;SDS011;5401;41.986;21.452;2024-03-08T00:25:01;42.87;;;28.47;;
10699;SDS011;5401;41.986;21.452;2024-03-08T00:27:29;30.73;;;21.93;;
10699;SDS011;5401;41.986;21.452;2024-03-08T00:29:57;30.67;;;22.03;;
10699;SDS011;5401;41.986;21.452;2024-03-08T00:32:24;42.90;;;22.80;;
10699;SDS011;5401;41.986;21.452;2024-03-08T00:34:56;32.47;;;25.48;;
10699;SDS011;5401;41.986;21.452;2024-03-08T00:37:23;31.93;;;24.57;;
10699;SDS011;5401;41.986;21.452;2024-03-08T00:39:52;34.07;;;24.30;;
10699;SDS011;5401;41.986;21.452;2024-03-08T00:42:20;30.50;;;22.70;;
10699;SDS011;5401;41.986;21.452;2024-03-08T00:44:48;26.50;;;18.97;;
10699;SDS011;5401;41.986;21.452;2024-03-08T00:47:16;23.07;;;17.60;;
10699;SDS011;5401;41.986;21.452;2024-03-08T00:49:53;33.00;;;19.00;;
10699;SDS011;5401;41.986;21.452;2024-03-08T00:52:22;31.87;;;20.03;;
10699;SDS011;5401;41.986;21.452;2024-03-08T00:54:50;25.50;;;19.67;;
10699;SDS011;5401;41.986;21.452;2024-03-08T00:57:21;29.87;;;20.17;;
10699;SDS011;5401;41.986;21.452;2024-03-08T00:59:48;33.87;;;19.23;;
10699;SDS011;5401;41.986;21.452;2024-03-08T01:02:16;21.80;;;14.07;;
10699;SDS011;5401;41.986;21.452;2024-03-08T01:04:44;20.40;;;12.37;;
10699;SDS011;5401;41.986;21.452;2024-03-08T01:07:12;21.33;;;13.83;;
10699;SDS011;5401;41.986;21.452;2024-03-08T01:09:40;22.97;;;14.57;;
10699;SDS011;5401;41.986;21.452;2024-03-08T01:12:09;23.63;;;13.73;;
10699;SDS011;5401;41.986;21.452;2024-03-08T01:14:36;27.63;;;13.97;;
10699;SDS011;5401;41.986;21.452;2024-03-08T01:17:05;20.97;;;13.50;;
10699;SDS011;5401;41.986;21.452;2024-03-08T01:19:33;20.30;;;14.10;;
10699;SDS011;5401;41.986;21.452;2024-03-08T01:22:00;19.50;;;13.80;;
10699;SDS011;5401;41.986;21.452;2024-03-08T01:24:29;21.53;;;13.90;;
10699;SDS011;5401;41.986;21.452;2024-03-08T01:26:56;20.60;;;13.40;;
10699;SDS011;5401;41.986;21.452;2024-03-08T01:29:25;18.17;;;11.50;;
10699;SDS011;5401;41.986;21.452;2024-03-08T01:31:53;16.33;;;11.13;;
10699;SDS011;5401;41.986;21.452;2024-03-08T01:34:20;14.37;;;9.60;;
10699;SDS011;5401;41.986;21.452;2024-03-08T01:36:48;12.27;;;9.77;;
10699;SDS011;5401;41.986;21.452;2024-03-08T01:39:15;18.67;;;10.67;;
10699;SDS011;5401;41.986;21.452;2024-03-08T01:41:43;15.90;;;9.13;;
10699;SDS011;5401;41.986;21.452;2024-03-08T01:44:10;17.60;;;9.47;;
10699;SDS011;5401;41.986;21.452;2024-03-08T01:46:42;13.83;;;9.80;;
10699;SDS011;5401;41.986;21.452;2024-03-08T01:49:11;13.87;;;9.87;;
10699;SDS011;5401;41.986;21.452;2024-03-08T01:51:39;11.87;;;9.77;;
10699;SDS011;5401;41.986;21.452;2024-03-08T01:54:08;14.33;;;10.97;;
10699;SDS011;5401;41.986;21.452;2024-03-08T01:56:38;17.00;;;10.43;;
10699;SDS011;5401;41.986;21.452;2024-03-08T01:59:06;16.27;;;10.67;;
10699;SDS011;5401;41.986;21.452;2024-03-08T02:01:34;14.40;;;10.63;;
10699;SDS011;5401;41.986;21.452;2024-03-08T02:04:03;14.63;;;11.07;;
10699;SDS011;5401;41.986;21.452;2024-03-08T02:06:31;12.67;;;9.27;;
10699;SDS011;5401;41.986;21.452;2024-03-08T02:08:59;15.17;;;9.57;;
10699;SDS011;5401;41.986;21.452;2024-03-08T02:11:31;12.67;;;8.33;;
10699;SDS011;5401;41.986;21.452;2024-03-08T02:13:59;15.10;;;8.20;;
10699;SDS011;5401;41.986;21.452;2024-03-08T02:16:27;11.87;;;8.00;;
10699;SDS011;5401;41.986;21.452;2024-03-08T02:18:54;12.60;;;8.00;;
10699;SDS011;5401;41.986;21.452;2024-03-08T02:21:23;14.60;;;8.43;;
10699;SDS011;5401;41.986;21.452;2024-03-08T02:23:51;16.67;;;9.20;;
10699;SDS011;5401;41.986;21.452;2024-03-08T02:26:18;15.03;;;8.83;;
10699;SDS011;5401;41.986;21.452;2024-03-08T02:28:46;10.97;;;9.17;;
10699;SDS011;5401;41.986;21.452;2024-03-08T02:31:14;12.90;;;8.37;;
10699;SDS011;5401;41.986;21.452;2024-03-08T02:33:42;11.87;;;8.17;;
10699;SDS011;5401;41.986;21.452;2024-03-08T02:36:10;13.33;;;7.60;;
10699;SDS011;5401;41.986;21.452;2024-03-08T02:38:39;10.73;;;8.07;;
10699;SDS011;5401;41.986;21.452;2024-03-08T02:41:07;13.93;;;8.70;;
10699;SDS011;5401;41.986;21.452;2024-03-08T02:43:36;12.17;;;7.90;;
10699;SDS011;5401;41.986;21.452;2024-03-08T02:46:04;14.33;;;8.53;;
10699;SDS011;5401;41.986;21.452;2024-03-08T02:48:32;11.50;;;7.80;;
10699;SDS011;5401;41.986;21.452;2024-03-08T02:50:59;11.67;;;8.00;;
10699;SDS011;5401;41.986;21.452;2024-03-08T02:53:27;11.90;;;7.70;;
10699;SDS011;5401;41.986;21.452;2024-03-08T02:55:56;11.13;;;7.97;;
10699;SDS011;5401;41.986;21.452;2024-03-08T02:58:24;10.60;;;8.07;;
10699;SDS011;5401;41.986;21.452;2024-03-08T03:00:51;12.40;;;7.83;;
10699;SDS011;5401;41.986;21.452;2024-03-08T03:03:19;12.53;;;7.40;;
10699;SDS011;5401;41.986;21.452;2024-03-08T03:05:46;8.53;;;7.13;;
10699;SDS011;5401;41.986;21.452;2024-03-08T03:08:15;8.00;;;6.73;;
10699;SDS011;5401;41.986;21.452;2024-03-08T03:10:42;9.70;;;7.13;;
10699;SDS011;5401;41.986;21.452;2024-03-08T03:13:11;14.77;;;7.33;;
10699;SDS011;5401;41.986;21.452;2024-03-08T03:15:39;11.63;;;6.80;;
10699;SDS011;5401;41.986;21.452;2024-03-08T03:18:07;14.37;;;7.70;;
10699;SDS011;5401;41.986;21.452;2024-03-08T03:20:35;9.97;;;7.67;;
10699;SDS011;5401;41.986;21.452;2024-03-08T03:23:05;16.93;;;8.40;;
10699;SDS011;5401;41.986;21.452;2024-03-08T03:25:36;15.13;;;8.40;;
10699;SDS011;5401;41.986;21.452;2024-03-08T03:28:06;16.80;;;9.47;;
10699;SDS011;5401;41.986;21.452;2024-03-08T03:30:38;12.37;;;8.53;;
10699;SDS011;5401;41.986;21.452;2024-03-08T03:33:05;11.50;;;9.20;;
10699;SDS011;5401;41.986;21.452;2024-03-08T03:35:33;17.23;;;10.83;;
10699;SDS011;5401;41.986;21.452;2024-03-08T03:38:01;13.40;;;10.10;;
10699;SDS011;5401;41.986;21.452;2024-03-08T03:40:32;16.00;;;10.87;;
10699;SDS011;5401;41.986;21.452;2024-03-08T03:43:00;16.13;;;11.27;;
10699;SDS011;5401;41.986;21.452;2024-03-08T03:45:28;15.50;;;9.80;;
10699;SDS011;5401;41.986;21.452;2024-03-08T03:48:00;14.50;;;7.87;;
10699;SDS011;5401;41.986;21.452;2024-03-08T03:50:29;10.87;;;8.37;;
10699;SDS011;5401;41.986;21.452;2024-03-08T03:52:56;13.07;;;8.53;;
10699;SDS011;5401;41.986;21.452;2024-03-08T03:55:24;13.07;;;7.50;;
10699;SDS011;5401;41.986;21.452;2024-03-08T03:57:52;9.87;;;7.43;;
10699;SDS011;5401;41.986;21.452;2024-03-08T04:00:20;16.03;;;9.93;;
10699;SDS011;5401;41.986;21.452;2024-03-08T04:02:47;15.73;;;11.03;;
10699;SDS011;5401;41.986;21.452;2024-03-08T04:05:17;15.40;;;9.67;;
10699;SDS011;5401;41.986;21.452;2024-03-08T04:07:44;13.67;;;9.80;;
10699;SDS011;5401;41.986;21.452;2024-03-08T04:10:12;15.23;;;10.73;;
10699;SDS011;5401;41.986;21.452;2024-03-08T04:12:39;14.60;;;10.30;;
10699;SDS011;5401;41.986;21.452;2024-03-08T04:15:07;12.90;;;9.43;;
10699;SDS011;5401;41.986;21.452;2024-03-08T04:17:36;13.40;;;9.90;;
10699;SDS011;5401;41.986;21.452;2024-03-08T04:20:04;14.77;;;10.07;;
10699;SDS011;5401;41.986;21.452;2024-03-08T04:22:37;12.20;;;10.37;;
10699;SDS011;5401;41.986;21.452;2024-03-08T04:25:06;14.33;;;10.10;;
10699;SDS011;5401;41.986;21.452;2024-03-08T04:27:35;14.23;;;10.13;;
10699;SDS011;5401;41.986;21.452;2024-03-08T04:30:03;14.00;;;9.80;;
10699;SDS011;5401;41.986;21.452;2024-03-08T04:32:33;12.70;;;10.27;;
10699;SDS011;5401;41.986;21.452;2024-03-08T04:35:00;20.50;;;9.90;;
10699;SDS011;5401;41.986;21.452;2024-03-08T04:37:31;13.73;;;9.20;;
10699;SDS011;5401;41.986;21.452;2024-03-08T04:39:59;15.07;;;10.20;;
10699;SDS011;5401;41.986;21.452;2024-03-08T04:42:29;14.10;;;9.97;;
10699;SDS011;5401;41.986;21.452;2024-03-08T04:44:58;18.83;;;11.03;;
10699;SDS011;5401;41.986;21.452;2024-03-08T04:47:25;19.30;;;12.70;;
10699;SDS011;5401;41.986;21.452;2024-03-08T04:49:59;25.97;;;13.63;;
10699;SDS011;5401;41.986;21.452;2024-03-08T04:52:26;19.50;;;14.80;;
10699;SDS011;5401;41.986;21.452;2024-03-08T04:54:54;18.63;;;14.83;;
10699;SDS011;5401;41.986;21.452;2024-03-08T04:57:23;25.53;;;14.87;;
10699;SDS011;5401;41.986;21.452;2024-03-08T04:59:51;18.83;;;15.30;;
10699;SDS011;5401;41.986;21.452;2024-03-08T05:02:18;24.87;;;15.77;;
10699;SDS011;5401;41.986;21.452;2024-03-08T05:04:48;21.10;;;14.77;;
10699;SDS011;5401;41.986;21.452;2024-03-08T05:07:16;20.07;;;13.63;;
10699;SDS011;5401;41.986;21.452;2024-03-08T05:09:45;20.33;;;14.10;;
10699;SDS011;5401;41.986;21.452;2024-03-08T05:12:17;18.33;;;13.13;;
10699;SDS011;5401;41.986;21.452;2024-03-08T05:14:46;20.50;;;12.93;;
10699;SDS011;5401;41.986;21.452;2024-03-08T05:17:15;23.90;;;12.00;;
10699;SDS011;5401;41.986;21.452;2024-03-08T05:19:43;21.43;;;11.63;;
10699;SDS011;5401;41.986;21.452;2024-03-08T05:22:10;15.47;;;11.77;;
10699;SDS011;5401;41.986;21.452;2024-03-08T05:24:38;18.80;;;13.03;;
10699;SDS011;5401;41.986;21.452;2024-03-08T05:27:05;15.97;;;11.90;;
10699;SDS011;5401;41.986;21.452;2024-03-08T05:29:33;19.13;;;12.53;;
10699;SDS011;5401;41.986;21.452;2024-03-08T05:32:01;17.60;;;13.47;;
10699;SDS011;5401;41.986;21.452;2024-03-08T05:34:29;15.13;;;12.03;;
10699;SDS011;5401;41.986;21.452;2024-03-08T05:36:57;16.93;;;11.33;;
10699;SDS011;5401;41.986;21.452;2024-03-08T05:39:26;17.33;;;11.47;;
10699;SDS011;5401;41.986;21.452;2024-03-08T05:41:53;14.97;;;11.73;;
10699;SDS011;5401;41.986;21.452;2024-03-08T05:44:22;17.97;;;11.00;;
10699;SDS011;5401;41.986;21.452;2024-03-08T05:46:49;14.33;;;11.13;;
10699;SDS011;5401;41.986;21.452;2024-03-08T05:49:18;18.03;;;11.60;;
10699;SDS011;5401;41.986;21.452;2024-03-08T05:51:47;19.03;;;11.27;;
10699;SDS011;5401;41.986;21.452;2024-03-08T05:54:17;18.80;;;12.20;;
10699;SDS011;5401;41.986;21.452;2024-03-08T05:56:47;18.50;;;10.17;;
10699;SDS011;5401;41.986;21.452;2024-03-08T05:59:18;13.23;;;9.37;;
10699;SDS011;5401;41.986;21.452;2024-03-08T06:01:46;17.83;;;10.30;;
10699;SDS011;5401;41.986;21.452;2024-03-08T06:04:13;15.13;;;10.77;;
10699;SDS011;5401;41.986;21.452;2024-03-08T06:06:42;17.53;;;10.77;;
10699;SDS011;5401;41.986;21.452;2024-03-08T06:09:09;23.10;;;12.27;;
10699;SDS011;5401;41.986;21.452;2024-03-08T06:11:42;18.57;;;12.37;;
10699;SDS011;5401;41.986;21.452;2024-03-08T06:14:10;18.03;;;12.40;;
10699;SDS011;5401;41.986;21.452;2024-03-08T06:16:37;19.20;;;11.53;;
10699;SDS011;5401;41.986;21.452;2024-03-08T06:19:04;21.70;;;13.63;;
10699;SDS011;5401;41.986;21.452;2024-03-08T06:21:32;24.90;;;16.60;;
10699;SDS011;5401;41.986;21.452;2024-03-08T06:24:01;16.73;;;11.73;;
10699;SDS011;5401;41.986;21.452;2024-03-08T06:26:28;17.17;;;10.33;;
10699;SDS011;5401;41.986;21.452;2024-03-08T06:28:56;15.53;;;10.53;;
10699;SDS011;5401;41.986;21.452;2024-03-08T06:31:24;19.77;;;10.03;;
10699;SDS011;5401;41.986;21.452;2024-03-08T06:33:53;13.43;;;10.57;;
10699;SDS011;5401;41.986;21.452;2024-03-08T06:36:21;21.57;;;11.87;;
10699;SDS011;5401;41.986;21.452;2024-03-08T06:38:48;10.60;;;8.53;;
10699;SDS011;5401;41.986;21.452;2024-03-08T06:41:17;12.83;;;9.47;;
10699;SDS011;5401;41.986;21.452;2024-03-08T06:43:45;14.17;;;9.97;;
10699;SDS011;5401;41.986;21.452;2024-03-08T06:46:14;18.17;;;10.63;;
10699;SDS011;5401;41.986;21.452;2024-03-08T06:48:43;14.20;;;10.33;;
10699;SDS011;5401;41.986;21.452;2024-03-08T06:51:12;20.30;;;11.17;;
10699;SDS011;5401;41.986;21.452;2024-03-08T06:53:40;15.43;;;10.93;;
10699;SDS011;5401;41.986;21.452;2024-03-08T06:56:07;13.50;;;9.70;;
10699;SDS011;5401;41.986;21.452;2024-03-08T06:58:36;14.63;;;9.97;;
10699;SDS011;5401;41.986;21.452;2024-03-08T07:01:03;14.93;;;10.63;;
10699;SDS011;5401;41.986;21.452;2024-03-08T07:03:33;14.67;;;10.43;;
10699;SDS011;5401;41.986;21.452;2024-03-08T07:06:00;19.77;;;11.03;;
10699;SDS011;5401;41.986;21.452;2024-03-08T07:08:28;20.53;;;11.13;;
10699;SDS011;5401;41.986;21.452;2024-03-08T07:10:55;13.83;;;10.93;;
10699;SDS011;5401;41.986;21.452;2024-03-08T07:13:23;14.00;;;10.50;;
10699;SDS011;5401;41.986;21.452;2024-03-08T07:15:53;13.80;;;9.63;;
10699;SDS011;5401;41.986;21.452;2024-03-08T07:18:21;18.57;;;11.33;;
10699;SDS011;5401;41.986;21.452;2024-03-08T07:20:48;22.80;;;11.63;;
10699;SDS011;5401;41.986;21.452;2024-03-08T07:23:16;14.13;;;9.67;;
10699;SDS011;5401;41.986;21.452;2024-03-08T07:26:06;14.33;;;10.03;;
10699;SDS011;5401;41.986;21.452;2024-03-08T07:28:33;11.37;;;9.37;;
10699;SDS011;5401;41.986;21.452;2024-03-08T07:31:02;11.50;;;9.47;;
10699;SDS011;5401;41.986;21.452;2024-03-08T07:33:43;16.63;;;10.80;;
10699;SDS011;5401;41.986;21.452;2024-03-08T07:36:10;14.53;;;10.43;;
10699;SDS011;5401;41.986;21.452;2024-03-08T07:38:40;16.27;;;9.37;;
10699;SDS011;5401;41.986;21.452;2024-03-08T07:41:08;15.03;;;9.63;;
10699;SDS011;5401;41.986;21.452;2024-03-08T07:43:35;11.90;;;9.83;;
10699;SDS011;5401;41.986;21.452;2024-03-08T07:46:04;14.40;;;10.10;;
10699;SDS011;5401;41.986;21.452;2024-03-08T07:48:32;12.17;;;9.63;;
10699;SDS011;5401;41.986;21.452;2024-03-08T07:50:59;13.47;;;10.47;;
10699;SDS011;5401;41.986;21.452;2024-03-08T07:53:28;12.03;;;9.77;;
10699;SDS011;5401;41.986;21.452;2024-03-08T07:55:56;11.17;;;9.87;;
10699;SDS011;5401;41.986;21.452;2024-03-08T07:58:23;15.40;;;10.87;;
10699;SDS011;5401;41.986;21.452;2024-03-08T08:00:51;14.60;;;9.93;;
10699;SDS011;5401;41.986;21.452;2024-03-08T08:03:19;12.67;;;10.63;;
10699;SDS011;5401;41.986;21.452;2024-03-08T08:05:48;18.33;;;10.20;;
10699;SDS011;5401;41.986;21.452;2024-03-08T08:08:16;13.03;;;10.03;;
10699;SDS011;5401;41.986;21.452;2024-03-08T08:10:43;13.93;;;9.90;;
10699;SDS011;5401;41.986;21.452;2024-03-08T08:13:11;13.73;;;9.60;;
10699;SDS011;5401;41.986;21.452;2024-03-08T08:15:38;16.23;;;10.13;;
10699;SDS011;5401;41.986;21.452;2024-03-08T08:18:06;15.50;;;10.57;;
10699;SDS011;5401;41.986;21.452;2024-03-08T08:20:36;12.67;;;9.90;;
10699;SDS011;5401;41.986;21.452;2024-03-08T08:23:04;14.47;;;11.23;;
10699;SDS011;5401;41.986;21.452;2024-03-08T08:25:31;14.03;;;9.93;;
10699;SDS011;5401;41.986;21.452;2024-03-08T08:28:00;15.30;;;11.00;;
10699;SDS011;5401;41.986;21.452;2024-03-08T08:30:29;12.70;;;10.87;;
10699;SDS011;5401;41.986;21.452;2024-03-08T08:32:58;15.03;;;11.63;;
10699;SDS011;5401;41.986;21.452;2024-03-08T08:38:32;22.00;;;10.77;;
10699;SDS011;5401;41.986;21.452;2024-03-08T08:41:00;16.00;;;11.43;;
10699;SDS011;5401;41.986;21.452;2024-03-08T08:43:28;17.00;;;12.20;;
10699;SDS011;5401;41.986;21.452;2024-03-08T08:45:56;17.00;;;12.37;;
10699;SDS011;5401;41.986;21.452;2024-03-08T08:48:23;21.60;;;12.23;;
10699;SDS011;5401;41.986;21.452;2024-03-08T08:50:51;19.73;;;12.57;;
10699;SDS011;5401;41.986;21.452;2024-03-08T08:53:20;21.57;;;12.20;;
10699;SDS011;5401;41.986;21.452;2024-03-08T08:55:48;14.37;;;11.07;;
10699;SDS011;5401;41.986;21.452;2024-03-08T08:58:15;15.60;;;12.10;;
10699;SDS011;5401;41.986;21.452;2024-03-08T09:00:44;20.17;;;12.33;;
10699;SDS011;5401;41.986;21.452;2024-03-08T09:03:11;15.40;;;11.70;;
10699;SDS011;5401;41.986;21.452;2024-03-08T09:05:39;16.63;;;12.23;;
10699;SDS011;5401;41.986;21.452;2024-03-08T09:08:08;17.67;;;12.50;;
10699;SDS011;5401;41.986;21.452;2024-03-08T09:10:37;14.13;;;11.97;;
10699;SDS011;5401;41.986;21.452;2024-03-08T09:13:05;16.60;;;13.07;;
10699;SDS011;5401;41.986;21.452;2024-03-08T09:15:35;20.90;;;11.80;;
10699;SDS011;5401;41.986;21.452;2024-03-08T09:18:06;14.77;;;10.40;;
10699;SDS011;5401;41.986;21.452;2024-03-08T09:20:34;12.57;;;10.90;;
10699;SDS011;5401;41.986;21.452;2024-03-08T09:23:02;17.13;;;11.93;;
10699;SDS011;5401;41.986;21.452;2024-03-08T09:25:30;15.83;;;10.90;;
10699;SDS011;5401;41.986;21.452;2024-03-08T09:27:59;15.07;;;11.17;;
10699;SDS011;5401;41.986;21.452;2024-03-08T09:30:27;13.13;;;10.73;;
10699;SDS011;5401;41.986;21.452;2024-03-08T09:32:54;14.53;;;10.40;;
10699;SDS011;5401;41.986;21.452;2024-03-08T09:35:22;14.07;;;11.13;;
10699;SDS011;5401;41.986;21.452;2024-03-08T09:37:49;11.47;;;10.10;;
10699;SDS011;5401;41.986;21.452;2024-03-08T09:40:24;11.80;;;10.23;;
10699;SDS011;5401;41.986;21.452;2024-03-08T09:42:51;13.03;;;10.70;;
10699;SDS011;5401;41.986;21.452;2024-03-08T09:45:22;12.03;;;9.77;;
10699;SDS011;5401;41.986;21.452;2024-03-08T09:47:51;11.13;;;9.77;;
10699;SDS011;5401;41.986;21.452;2024-03-08T09:50:20;11.67;;;9.53;;
10699;SDS011;5401;41.986;21.452;2024-03-08T09:52:52;17.27;;;10.83;;
10699;SDS011;5401;41.986;21.452;2024-03-08T09:55:22;12.17;;;9.63;;
10699;SDS011;5401;41.986;21.452;2024-03-08T09:57:57;13.90;;;9.20;;
10699;SDS011;5401;41.986;21.452;2024-03-08T10:00:46;13.20;;;10.20;;
10699;SDS011;5401;41.986;21.452;2024-03-08T10:03:13;13.00;;;9.87;;
10699;SDS011;5401;41.986;21.452;2024-03-08T10:05:41;13.17;;;9.77;;
10699;SDS011;5401;41.986;21.452;2024-03-08T10:08:10;11.87;;;9.57;;
10699;SDS011;5401;41.986;21.452;2024-03-08T10:10:37;15.77;;;9.87;;
10699;SDS011;5401;41.986;21.452;2024-03-08T10:13:05;14.13;;;9.67;;
10699;SDS011;5401;41.986;21.452;2024-03-08T10:15:33;12.23;;;9.13;;
10699;SDS011;5401;41.986;21.452;2024-03-08T10:18:02;10.43;;;9.20;;
10699;SDS011;5401;41.986;21.452;2024-03-08T10:20:30;13.67;;;9.50;;
10699;SDS011;5401;41.986;21.452;2024-03-08T10:22:59;12.03;;;9.50;;
10699;SDS011;5401;41.986;21.452;2024-03-08T10:25:29;12.83;;;9.77;;
10699;SDS011;5401;41.986;21.452;2024-03-08T10:27:56;12.47;;;9.57;;
10699;SDS011;5401;41.986;21.452;2024-03-08T10:30:24;12.43;;;9.07;;
10699;SDS011;5401;41.986;21.452;2024-03-08T10:32:51;12.53;;;9.20;;
10699;SDS011;5401;41.986;21.452;2024-03-08T10:35:20;14.03;;;8.73;;
10699;SDS011;5401;41.986;21.452;2024-03-08T10:37:48;12.53;;;8.83;;
10699;SDS011;5401;41.986;21.452;2024-03-08T10:40:24;12.70;;;9.67;;
10699;SDS011;5401;41.986;21.452;2024-03-08T10:42:53;11.60;;;9.63;;
10699;SDS011;5401;41.986;21.452;2024-03-08T10:45:26;10.13;;;9.17;;
10699;SDS011;5401;41.986;21.452;2024-03-08T10:48:03;12.03;;;8.23;;
10699;SDS011;5401;41.986;21.452;2024-03-08T10:50:43;10.80;;;9.27;;
10699;SDS011;5401;41.986;21.452;2024-03-08T10:53:13;9.93;;;8.70;;
10699;SDS011;5401;41.986;21.452;2024-03-08T10:55:41;14.10;;;9.03;;
10699;SDS011;5401;41.986;21.452;2024-03-08T10:58:10;10.43;;;7.90;;
10699;SDS011;5401;41.986;21.452;2024-03-08T11:00:38;9.37;;;8.47;;
10699;SDS011;5401;41.986;21.452;2024-03-08T11:03:07;10.43;;;8.30;;
10699;SDS011;5401;41.986;21.452;2024-03-08T11:05:56;9.23;;;7.97;;
10699;SDS011;5401;41.986;21.452;2024-03-08T11:08:23;10.37;;;7.83;;
10699;SDS011;5401;41.986;21.452;2024-03-08T11:10:51;8.70;;;7.13;;
10699;SDS011;5401;41.986;21.452;2024-03-08T11:16:36;9.97;;;7.40;;
10699;SDS011;5401;41.986;21.452;2024-03-08T11:21:59;8.60;;;7.10;;
10699;SDS011;5401;41.986;21.452;2024-03-08T11:24:27;8.30;;;6.93;;
10699;SDS011;5401;41.986;21.452;2024-03-08T11:26:56;8.73;;;6.77;;
10699;SDS011;5401;41.986;21.452;2024-03-08T11:29:35;7.57;;;6.63;;
10699;SDS011;5401;41.986;21.452;2024-03-08T11:32:06;7.30;;;6.30;;
10699;SDS011;5401;41.986;21.452;2024-03-08T11:34:35;10.77;;;6.73;;
10699;SDS011;5401;41.986;21.452;2024-03-08T11:37:07;7.40;;;6.20;;
10699;SDS011;5401;41.986;21.452;2024-03-08T11:39:39;6.20;;;5.47;;
10699;SDS011;5401;41.986;21.452;2024-03-08T11:42:06;6.60;;;5.57;;
10699;SDS011;5401;41.986;21.452;2024-03-08T11:44:37;5.60;;;5.00;;
10699;SDS011;5401;41.986;21.452;2024-03-08T11:47:09;6.70;;;5.47;;
10699;SDS011;5401;41.986;21.452;2024-03-08T11:49:37;6.50;;;5.67;;
10699;SDS011;5401;41.986;21.452;2024-03-08T11:52:11;6.57;;;4.67;;
10699;SDS011;5401;41.986;21.452;2024-03-08T11:54:39;6.83;;;4.73;;
10699;SDS011;5401;41.986;21.452;2024-03-08T11:57:07;6.10;;;5.00;;
10699;SDS011;5401;41.986;21.452;2024-03-08T11:59:35;6.50;;;4.87;;
10699;SDS011;5401;41.986;21.452;2024-03-08T12:02:03;6.70;;;5.00;;
10699;SDS011;5401;41.986;21.452;2024-03-08T12:04:32;8.07;;;5.00;;
10699;SDS011;5401;41.986;21.452;2024-03-08T12:07:02;4.70;;;4.23;;
10699;SDS011;5401;41.986;21.452;2024-03-08T12:09:36;8.23;;;4.50;;
10699;SDS011;5401;41.986;21.452;2024-03-08T12:12:11;4.90;;;4.40;;
10699;SDS011;5401;41.986;21.452;2024-03-08T12:14:39;6.90;;;4.57;;
10699;SDS011;5401;41.986;21.452;2024-03-08T12:17:10;5.63;;;4.20;;
10699;SDS011;5401;41.986;21.452;2024-03-08T12:19:38;4.40;;;4.00;;
10699;SDS011;5401;41.986;21.452;2024-03-08T12:22:08;4.90;;;4.30;;
10699;SDS011;5401;41.986;21.452;2024-03-08T12:24:38;4.93;;;3.77;;
10699;SDS011;5401;41.986;21.452;2024-03-08T12:27:17;5.90;;;4.00;;
10699;SDS011;5401;41.986;21.452;2024-03-08T12:29:45;3.73;;;3.37;;
10699;SDS011;5401;41.986;21.452;2024-03-08T12:32:12;4.33;;;3.60;;
10699;SDS011;5401;41.986;21.452;2024-03-08T12:34:40;2.90;;;2.70;;
10699;SDS011;5401;41.986;21.452;2024-03-08T12:37:07;3.80;;;3.00;;
10699;SDS011;5401;41.986;21.452;2024-03-08T12:39:35;3.50;;;3.20;;
10699;SDS011;5401;41.986;21.452;2024-03-08T12:42:05;3.13;;;2.83;;
10699;SDS011;5401;41.986;21.452;2024-03-08T12:44:42;3.10;;;2.87;;
10699;SDS011;5401;41.986;21.452;2024-03-08T12:47:09;4.63;;;2.77;;
10699;SDS011;5401;41.986;21.452;2024-03-08T12:49:36;6.07;;;2.50;;
10699;SDS011;5401;41.986;21.452;2024-03-08T12:52:08;2.47;;;2.30;;
10699;SDS011;5401;41.986;21.452;2024-03-08T12:54:37;3.00;;;2.70;;
10699;SDS011;5401;41.986;21.452;2024-03-08T12:57:06;2.67;;;2.20;;
10699;SDS011;5401;41.986;21.452;2024-03-08T12:59:34;5.17;;;2.47;;
10699;SDS011;5401;41.986;21.452;2024-03-08T13:02:01;3.33;;;2.60;;
10699;SDS011;5401;41.986;21.452;2024-03-08T13:07:23;3.53;;;2.30;;
10699;SDS011;5401;41.986;21.452;2024-03-08T13:09:52;2.73;;;2.50;;
10699;SDS011;5401;41.986;21.452;2024-03-08T13:12:22;4.27;;;3.03;;
10699;SDS011;5401;41.986;21.452;2024-03-08T13:14:49;3.17;;;2.83;;
10699;SDS011;5401;41.986;21.452;2024-03-08T13:17:17;3.03;;;2.73;;
10699;SDS011;5401;41.986;21.452;2024-03-08T13:19:45;3.00;;;2.70;;
10699;SDS011;5401;41.986;21.452;2024-03-08T13:22:12;3.10;;;2.47;;
10699;SDS011;5401;41.986;21.452;2024-03-08T13:24:42;3.27;;;2.37;;
10699;SDS011;5401;41.986;21.452;2024-03-08T13:27:11;4.23;;;2.80;;
10699;SDS011;5401;41.986;21.452;2024-03-08T13:29:47;2.63;;;2.43;;
10699;SDS011;5401;41.986;21.452;2024-03-08T13:32:15;3.30;;;2.33;;
10699;SDS011;5401;41.986;21.452;2024-03-08T13:34:43;3.97;;;2.67;;
10699;SDS011;5401;41.986;21.452;2024-03-08T13:37:11;9.30;;;2.93;;
10699;SDS011;5401;41.986;21.452;2024-03-08T13:39:41;5.77;;;2.30;;
10699;SDS011;5401;41.986;21.452;2024-03-08T13:42:10;3.00;;;2.43;;
10699;SDS011;5401;41.986;21.452;2024-03-08T13:44:44;8.00;;;3.10;;
10699;SDS011;5401;41.986;21.452;2024-03-08T13:47:14;3.00;;;2.70;;
10699;SDS011;5401;41.986;21.452;2024-03-08T13:49:41;2.87;;;2.13;;
10699;SDS011;5401;41.986;21.452;2024-03-08T13:52:09;3.87;;;3.00;;
10699;SDS011;5401;41.986;21.452;2024-03-08T13:54:42;2.20;;;2.07;;
10699;SDS011;5401;41.986;21.452;2024-03-08T13:57:09;2.50;;;2.30;;
10699;SDS011;5401;41.986;21.452;2024-03-08T13:59:37;3.73;;;2.50;;
10699;SDS011;5401;41.986;21.452;2024-03-08T14:02:06;2.47;;;2.27;;
10699;SDS011;5401;41.986;21.452;2024-03-08T14:04:38;3.90;;;2.40;;
10699;SDS011;5401;41.986;21.452;2024-03-08T14:07:07;8.90;;;2.77;;
10699;SDS011;5401;41.986;21.452;2024-03-08T14:09:34;4.20;;;2.80;;
10699;SDS011;5401;41.986;21.452;2024-03-08T14:12:08;2.83;;;2.37;;
10699;SDS011;5401;41.986;21.452;2024-03-08T14:14:36;2.70;;;2.37;;
10699;SDS011;5401;41.986;21.452;2024-03-08T14:17:04;2.57;;;2.30;;
10699;SDS011;5401;41.986;21.452;2024-03-08T14:19:36;2.53;;;2.13;;
10699;SDS011;5401;41.986;21.452;2024-03-08T14:22:05;2.40;;;2.20;;
10699;SDS011;5401;41.986;21.452;2024-03-08T14:24:33;3.57;;;2.27;;
10699;SDS011;5401;41.986;21.452;2024-03-08T14:27:01;3.93;;;2.87;;
10699;SDS011;5401;41.986;21.452;2024-03-08T14:29:28;3.33;;;2.20;;
10699;SDS011;5401;41.986;21.452;2024-03-08T14:31:58;3.33;;;2.70;;
10699;SDS011;5401;41.986;21.452;2024-03-08T14:34:26;2.77;;;2.47;;
10699;SDS011;5401;41.986;21.452;2024-03-08T14:36:56;3.20;;;2.87;;
10699;SDS011;5401;41.986;21.452;2024-03-08T14:39:24;3.90;;;2.70;;
10699;SDS011;5401;41.986;21.452;2024-03-08T14:41:55;3.97;;;2.50;;
10699;SDS011;5401;41.986;21.452;2024-03-08T14:44:24;3.60;;;3.30;;
10699;SDS011;5401;41.986;21.452;2024-03-08T14:46:51;5.30;;;3.00;;
10699;SDS011;5401;41.986;21.452;2024-03-08T14:49:19;3.83;;;3.17;;
10699;SDS011;5401;41.986;21.452;2024-03-08T14:51:47;3.10;;;2.80;;
10699;SDS011;5401;41.986;21.452;2024-03-08T14:54:16;2.87;;;2.30;;